Aérodrome :
LOGIN :

S'inscrire | Disclaimer

   EN    FR    IT 

 










Légende :    VFR   VFR Marginal   IFR   IFR Intensif   IFR Très Intensif
Visi : 
Plafond : 
>= 8 km
>= 3000ft
5 à 8 km
1000 à 3000 ft
1500m à 5 km
500 à 1000 ft
800 à 1500m
200 à 500 ft
< 800m
< 200 ft
Symboles :   Orages  Brouillard  Fortes neiges  Fortes précipitations  Vent > 20 kt
SIGMETs :   Divers  Orages  Givrage  Turbulence  Onde Orograph.  Cendres Volcan.






- Altitude de l'aérodrome : 357 ft
- Code IATA : TUF


LFOT - Tours

DERNIER METAR :
  • 071400Z AUTO 20007KT 9999 BKN005 BKN010 OVC045 11/10 Q1019 TEMPO 2000 BR

METARs EXPIRÉS :
  • 071330Z AUTO 20006KT 150V230 9999 BKN006 BKN027 OVC040 11/10 Q1019 TEMPO 2000 BR OVC002
  • 071300Z AUTO 24006KT 9999 BKN007 BKN013 BKN024 11/10 Q1019 TEMPO 2000 BR OVC002
  • 071230Z AUTO 24006KT 9999 SCT007 BKN019 BKN024 11/10 Q1020 TEMPO 2000 BR OVC002
  • 071200Z AUTO 26006KT 9999 OVC007 11/10 Q1020 TEMPO 2000 BR OVC002
  • 071130Z AUTO 25008KT 9999 OVC007 11/10 Q1020 TEMPO 2000 BR OVC002

TAF TAF LFOT
Valide du 07 à 12h jusqu'au 08 à 12h UTC


071100Z 0712/0812 24006KT 9999 OVC006
TEMPO 0712/0804 3500 -DZ OVC003
PROB30
TEMPO 0712/0803 2000 BR OVC002
BECMG 0804/0806 22015G25KT -RA
TEMPO 0806/0809 4000 RA OVC004
PROB30
TEMPO 0806/0809 20020G30KT
TEMPO 0809/0812 2500 -RADZ OVC003



MET'MAP, la Météo Aéronautique d'un coup d'oeil ! - Copyright ORBIFLY Décembre 2007 - Disclaimer

ORBIFLY MET'MAP TEAM :

Programmation & Développement : Alexandra Zaïnal
Sur une idée originale de : Baudouin d'Aumeries
Assistance à la programmation : Marc-Olivier Méhu
Soutien technique & logistique : Manuel Goepfert

Contact : metmap@orbifly.com




SOURCES & CREDITS :

   NOAA